sensor_id;sensor_type;location;lat;lon;timestamp;pressure;altitude;pressure_sealevel;temperature;humidity
70555;BME280;58104;52.744;15.242;2023-07-28T00:02:13;99667.11;;;24.60;45.36
70555;BME280;58104;52.744;15.242;2023-07-28T00:04:38;99669.05;;;24.74;43.90
70555;BME280;58104;52.744;15.242;2023-07-28T00:07:05;99668.43;;;24.51;44.89
70555;BME280;58104;52.744;15.242;2023-07-28T00:09:29;99662.82;;;23.15;48.38
70555;BME280;58104;52.744;15.242;2023-07-28T00:11:56;99653.71;;;22.22;51.40
70555;BME280;58104;52.744;15.242;2023-07-28T00:14:20;99647.75;;;21.81;52.46
70555;BME280;58104;52.744;15.242;2023-07-28T00:16:45;99653.65;;;21.22;54.44
70555;BME280;58104;52.744;15.242;2023-07-28T00:19:11;99657.02;;;22.55;51.12
70555;BME280;58104;52.744;15.242;2023-07-28T00:21:36;99659.68;;;23.31;48.99
70555;BME280;58104;52.744;15.242;2023-07-28T00:24:02;99656.84;;;23.50;47.85
70555;BME280;58104;52.744;15.242;2023-07-28T00:26:27;99656.04;;;23.58;47.70
70555;BME280;58104;52.744;15.242;2023-07-28T00:28:52;99654.41;;;23.61;47.74
70555;BME280;58104;52.744;15.242;2023-07-28T00:31:18;99650.42;;;23.53;47.80
70555;BME280;58104;52.744;15.242;2023-07-28T00:33:43;99651.36;;;23.54;48.07
70555;BME280;58104;52.744;15.242;2023-07-28T00:36:08;99652.32;;;23.59;47.85
70555;BME280;58104;52.744;15.242;2023-07-28T00:38:34;99642.31;;;23.90;47.22
70555;BME280;58104;52.744;15.242;2023-07-28T00:40:59;99645.72;;;24.32;45.69
70555;BME280;58104;52.744;15.242;2023-07-28T00:43:25;99638.47;;;24.53;45.43
70555;BME280;58104;52.744;15.242;2023-07-28T00:45:50;99637.35;;;24.31;45.79
70555;BME280;58104;52.744;15.242;2023-07-28T00:48:17;99620.21;;;24.05;46.13
70555;BME280;58104;52.744;15.242;2023-07-28T00:50:41;99619.10;;;24.06;46.49
70555;BME280;58104;52.744;15.242;2023-07-28T00:53:07;99610.40;;;23.96;46.62
70555;BME280;58104;52.744;15.242;2023-07-28T00:55:31;99608.07;;;23.78;46.81
70555;BME280;58104;52.744;15.242;2023-07-28T00:57:57;99599.58;;;23.87;46.90
70555;BME280;58104;52.744;15.242;2023-07-28T01:00:22;99597.65;;;23.82;47.14
70555;BME280;58104;52.744;15.242;2023-07-28T01:02:48;99589.09;;;23.79;46.95
70555;BME280;58104;52.744;15.242;2023-07-28T01:05:13;99579.39;;;23.86;46.90
70555;BME280;58104;52.744;15.242;2023-07-28T01:07:46;99588.84;;;23.86;46.91
70555;BME280;58104;52.744;15.242;2023-07-28T01:10:08;99590.07;;;23.85;46.92
70555;BME280;58104;52.744;15.242;2023-07-28T01:12:29;99584.20;;;23.76;46.93
70555;BME280;58104;52.744;15.242;2023-07-28T01:14:54;99584.47;;;23.86;46.96
70555;BME280;58104;52.744;15.242;2023-07-28T01:17:20;99579.35;;;23.83;46.85
70555;BME280;58104;52.744;15.242;2023-07-28T01:19:45;99571.57;;;23.80;46.91
70555;BME280;58104;52.744;15.242;2023-07-28T01:22:27;99572.77;;;23.78;46.80
70555;BME280;58104;52.744;15.242;2023-07-28T01:24:42;99567.69;;;23.82;46.83
70555;BME280;58104;52.744;15.242;2023-07-28T01:27:02;99570.23;;;23.76;46.92
70555;BME280;58104;52.744;15.242;2023-07-28T01:29:27;99573.30;;;23.79;46.85
70555;BME280;58104;52.744;15.242;2023-07-28T01:31:52;99571.28;;;23.83;46.95
70555;BME280;58104;52.744;15.242;2023-07-28T01:34:17;99570.75;;;23.78;47.05
70555;BME280;58104;52.744;15.242;2023-07-28T01:36:43;99572.76;;;23.62;47.12
70555;BME280;58104;52.744;15.242;2023-07-28T01:39:08;99577.13;;;23.73;47.16
70555;BME280;58104;52.744;15.242;2023-07-28T01:41:34;99574.51;;;23.66;47.18
70555;BME280;58104;52.744;15.242;2023-07-28T01:43:59;99574.36;;;23.70;47.25
70555;BME280;58104;52.744;15.242;2023-07-28T01:46:24;99568.31;;;23.60;47.27
70555;BME280;58104;52.744;15.242;2023-07-28T01:48:50;99556.29;;;23.68;47.29
70555;BME280;58104;52.744;15.242;2023-07-28T01:51:15;99553.38;;;23.67;47.22
70555;BME280;58104;52.744;15.242;2023-07-28T01:53:41;99554.55;;;23.56;47.31
70555;BME280;58104;52.744;15.242;2023-07-28T01:56:06;99554.32;;;23.69;47.27
70555;BME280;58104;52.744;15.242;2023-07-28T01:58:31;99559.60;;;23.72;47.32
70555;BME280;58104;52.744;15.242;2023-07-28T02:00:57;99557.81;;;23.65;47.27
70555;BME280;58104;52.744;15.242;2023-07-28T02:03:22;99556.24;;;23.74;47.26
70555;BME280;58104;52.744;15.242;2023-07-28T02:05:47;99553.36;;;23.72;47.38
70555;BME280;58104;52.744;15.242;2023-07-28T02:08:13;99546.04;;;23.62;47.29
70555;BME280;58104;52.744;15.242;2023-07-28T02:10:38;99549.66;;;23.67;47.34
70555;BME280;58104;52.744;15.242;2023-07-28T02:13:04;99548.41;;;23.65;47.25
70555;BME280;58104;52.744;15.242;2023-07-28T02:15:29;99540.22;;;23.72;47.38
70555;BME280;58104;52.744;15.242;2023-07-28T02:17:54;99537.01;;;23.68;47.59
70555;BME280;58104;52.744;15.242;2023-07-28T02:20:20;99530.37;;;23.73;47.55
70555;BME280;58104;52.744;15.242;2023-07-28T02:22:45;99525.93;;;23.75;47.56
70555;BME280;58104;52.744;15.242;2023-07-28T02:25:11;99520.92;;;23.82;47.29
70555;BME280;58104;52.744;15.242;2023-07-28T02:27:36;99523.20;;;23.79;47.36
70555;BME280;58104;52.744;15.242;2023-07-28T02:30:01;99533.17;;;23.76;47.49
70555;BME280;58104;52.744;15.242;2023-07-28T02:32:28;99529.98;;;23.79;47.58
70555;BME280;58104;52.744;15.242;2023-07-28T02:34:52;99531.47;;;23.63;47.68
70555;BME280;58104;52.744;15.242;2023-07-28T02:37:17;99526.75;;;23.62;47.72
70555;BME280;58104;52.744;15.242;2023-07-28T02:39:43;99525.53;;;23.71;47.68
70555;BME280;58104;52.744;15.242;2023-07-28T02:42:08;99526.20;;;23.69;47.74
70555;BME280;58104;52.744;15.242;2023-07-28T02:44:33;99523.01;;;23.73;47.76
70555;BME280;58104;52.744;15.242;2023-07-28T02:46:59;99527.51;;;23.71;47.85
70555;BME280;58104;52.744;15.242;2023-07-28T02:49:24;99530.41;;;23.67;47.83
70555;BME280;58104;52.744;15.242;2023-07-28T02:51:50;99534.41;;;23.68;48.05
70555;BME280;58104;52.744;15.242;2023-07-28T02:54:15;99539.61;;;23.80;47.74
70555;BME280;58104;52.744;15.242;2023-07-28T02:56:40;99539.53;;;23.79;47.71
70555;BME280;58104;52.744;15.242;2023-07-28T02:59:06;99540.57;;;23.90;47.42
70555;BME280;58104;52.744;15.242;2023-07-28T03:01:31;99535.84;;;23.84;47.41
70555;BME280;58104;52.744;15.242;2023-07-28T03:03:57;99527.39;;;23.82;47.49
70555;BME280;58104;52.744;15.242;2023-07-28T03:06:22;99523.64;;;23.86;47.32
70555;BME280;58104;52.744;15.242;2023-07-28T03:08:47;99534.71;;;23.84;47.52
70555;BME280;58104;52.744;15.242;2023-07-28T03:11:13;99532.20;;;23.80;47.49
70555;BME280;58104;52.744;15.242;2023-07-28T03:13:38;99524.97;;;23.91;47.54
70555;BME280;58104;52.744;15.242;2023-07-28T03:16:04;99518.89;;;23.77;47.53
70555;BME280;58104;52.744;15.242;2023-07-28T03:18:29;99515.89;;;23.77;47.54
70555;BME280;58104;52.744;15.242;2023-07-28T03:20:54;99510.46;;;23.76;47.59
70555;BME280;58104;52.744;15.242;2023-07-28T03:23:19;99511.55;;;23.80;47.50
70555;BME280;58104;52.744;15.242;2023-07-28T03:25:45;99508.93;;;23.84;47.58
70555;BME280;58104;52.744;15.242;2023-07-28T03:28:10;99506.36;;;23.86;47.62
70555;BME280;58104;52.744;15.242;2023-07-28T03:30:36;99501.24;;;23.80;47.52
70555;BME280;58104;52.744;15.242;2023-07-28T03:33:01;99502.29;;;23.87;47.51
70555;BME280;58104;52.744;15.242;2023-07-28T03:35:26;99503.56;;;23.80;47.53
70555;BME280;58104;52.744;15.242;2023-07-28T03:37:52;99496.66;;;23.86;47.61
70555;BME280;58104;52.744;15.242;2023-07-28T03:40:17;99495.79;;;23.89;47.47
70555;BME280;58104;52.744;15.242;2023-07-28T03:42:43;99491.13;;;23.85;47.56
70555;BME280;58104;52.744;15.242;2023-07-28T03:45:08;99488.64;;;23.78;47.63
70555;BME280;58104;52.744;15.242;2023-07-28T03:47:33;99485.73;;;23.84;47.49
70555;BME280;58104;52.744;15.242;2023-07-28T03:49:59;99481.57;;;23.89;47.56
70555;BME280;58104;52.744;15.242;2023-07-28T03:52:24;99474.25;;;23.89;47.57
70555;BME280;58104;52.744;15.242;2023-07-28T03:54:49;99472.01;;;23.88;47.70
70555;BME280;58104;52.744;15.242;2023-07-28T03:57:16;99469.48;;;23.73;47.86
70555;BME280;58104;52.744;15.242;2023-07-28T03:59:40;99466.41;;;23.76;47.96
70555;BME280;58104;52.744;15.242;2023-07-28T04:02:06;99461.55;;;23.68;48.00
70555;BME280;58104;52.744;15.242;2023-07-28T04:04:31;99461.31;;;23.71;48.04
70555;BME280;58104;52.744;15.242;2023-07-28T04:06:56;99453.77;;;23.76;48.03
70555;BME280;58104;52.744;15.242;2023-07-28T04:09:22;99453.25;;;23.59;48.20
70555;BME280;58104;52.744;15.242;2023-07-28T04:11:47;99453.51;;;23.67;48.14
70555;BME280;58104;52.744;15.242;2023-07-28T04:14:13;99452.45;;;23.66;48.22
70555;BME280;58104;52.744;15.242;2023-07-28T04:16:38;99464.79;;;23.75;48.11
70555;BME280;58104;52.744;15.242;2023-07-28T04:19:03;99465.77;;;23.70;48.07
70555;BME280;58104;52.744;15.242;2023-07-28T04:21:29;99464.22;;;23.68;48.23
70555;BME280;58104;52.744;15.242;2023-07-28T04:23:54;99471.61;;;23.69;48.21
70555;BME280;58104;52.744;15.242;2023-07-28T04:26:19;99474.92;;;23.75;48.20
70555;BME280;58104;52.744;15.242;2023-07-28T04:28:45;99472.79;;;23.70;48.15
70555;BME280;58104;52.744;15.242;2023-07-28T04:31:10;99474.49;;;23.80;48.08
70555;BME280;58104;52.744;15.242;2023-07-28T04:33:35;99477.69;;;23.73;47.99
70555;BME280;58104;52.744;15.242;2023-07-28T04:36:02;99475.96;;;23.85;47.99
70555;BME280;58104;52.744;15.242;2023-07-28T04:38:26;99477.38;;;23.78;48.00
70555;BME280;58104;52.744;15.242;2023-07-28T04:40:52;99474.15;;;23.86;47.91
70555;BME280;58104;52.744;15.242;2023-07-28T04:43:17;99476.87;;;23.78;47.91
70555;BME280;58104;52.744;15.242;2023-07-28T04:45:44;99468.83;;;23.75;48.11
70555;BME280;58104;52.744;15.242;2023-07-28T04:48:08;99475.96;;;23.75;48.25
70555;BME280;58104;52.744;15.242;2023-07-28T04:50:33;99480.55;;;23.84;48.14
70555;BME280;58104;52.744;15.242;2023-07-28T04:52:59;99475.81;;;23.85;48.10
70555;BME280;58104;52.744;15.242;2023-07-28T04:55:24;99474.38;;;23.87;48.00
70555;BME280;58104;52.744;15.242;2023-07-28T04:57:49;99472.96;;;23.78;48.05
70555;BME280;58104;52.744;15.242;2023-07-28T05:00:15;99470.24;;;23.92;48.01
70555;BME280;58104;52.744;15.242;2023-07-28T05:02:40;99471.44;;;23.94;47.97
70555;BME280;58104;52.744;15.242;2023-07-28T05:05:06;99472.58;;;23.83;47.95
70555;BME280;58104;52.744;15.242;2023-07-28T05:07:31;99469.78;;;23.93;48.28
70555;BME280;58104;52.744;15.242;2023-07-28T05:09:56;99469.82;;;23.88;48.33
70555;BME280;58104;52.744;15.242;2023-07-28T05:12:22;99467.98;;;23.82;48.32
70555;BME280;58104;52.744;15.242;2023-07-28T05:14:47;99469.35;;;23.88;48.34
70555;BME280;58104;52.744;15.242;2023-07-28T05:17:12;99467.87;;;23.82;48.38
70555;BME280;58104;52.744;15.242;2023-07-28T05:19:38;99470.32;;;23.82;48.48
70555;BME280;58104;52.744;15.242;2023-07-28T05:22:03;99467.12;;;23.97;48.42
70555;BME280;58104;52.744;15.242;2023-07-28T05:24:28;99471.69;;;23.93;48.50
70555;BME280;58104;52.744;15.242;2023-07-28T05:26:54;99474.14;;;23.97;48.49
70555;BME280;58104;52.744;15.242;2023-07-28T05:29:19;99471.75;;;23.97;48.35
70555;BME280;58104;52.744;15.242;2023-07-28T05:31:45;99469.73;;;23.98;48.42
70555;BME280;58104;52.744;15.242;2023-07-28T05:34:10;99466.36;;;24.01;48.42
70555;BME280;58104;52.744;15.242;2023-07-28T05:36:35;99472.34;;;24.00;48.40
70555;BME280;58104;52.744;15.242;2023-07-28T05:39:00;99472.44;;;24.08;48.18
70555;BME280;58104;52.744;15.242;2023-07-28T05:41:26;99475.99;;;24.01;48.15
70555;BME280;58104;52.744;15.242;2023-07-28T05:43:51;99478.61;;;23.90;48.21
70555;BME280;58104;52.744;15.242;2023-07-28T05:46:17;99479.33;;;24.00;48.13
70555;BME280;58104;52.744;15.242;2023-07-28T05:48:42;99482.72;;;24.00;48.18
70555;BME280;58104;52.744;15.242;2023-07-28T05:51:07;99483.99;;;24.01;48.14
70555;BME280;58104;52.744;15.242;2023-07-28T05:53:33;99480.22;;;24.03;48.07
70555;BME280;58104;52.744;15.242;2023-07-28T05:55:58;99483.66;;;23.98;48.16
70555;BME280;58104;52.744;15.242;2023-07-28T05:58:24;99487.92;;;24.00;48.10
70555;BME280;58104;52.744;15.242;2023-07-28T06:00:49;99486.61;;;23.93;48.17
70555;BME280;58104;52.744;15.242;2023-07-28T06:03:15;99491.42;;;24.00;47.97
70555;BME280;58104;52.744;15.242;2023-07-28T06:05:40;99490.97;;;23.97;47.89
70555;BME280;58104;52.744;15.242;2023-07-28T06:08:05;99493.09;;;24.04;47.88
70555;BME280;58104;52.744;15.242;2023-07-28T06:10:30;99497.67;;;23.98;48.03
70555;BME280;58104;52.744;15.242;2023-07-28T06:12:56;99495.66;;;24.05;48.00
70555;BME280;58104;52.744;15.242;2023-07-28T06:15:21;99493.13;;;24.02;48.10
70555;BME280;58104;52.744;15.242;2023-07-28T06:17:46;99494.58;;;23.96;48.07
70555;BME280;58104;52.744;15.242;2023-07-28T06:20:12;99496.47;;;23.98;48.06
70555;BME280;58104;52.744;15.242;2023-07-28T06:22:37;99503.23;;;24.02;48.03
70555;BME280;58104;52.744;15.242;2023-07-28T06:25:03;99510.02;;;24.06;48.11
70555;BME280;58104;52.744;15.242;2023-07-28T06:27:28;99511.22;;;24.00;48.11
70555;BME280;58104;52.744;15.242;2023-07-28T06:29:53;99512.05;;;24.09;47.89
70555;BME280;58104;52.744;15.242;2023-07-28T06:32:19;99515.17;;;24.19;47.82
70555;BME280;58104;52.744;15.242;2023-07-28T06:34:44;99520.47;;;24.15;47.70
70555;BME280;58104;52.744;15.242;2023-07-28T06:37:09;99524.50;;;24.09;47.82
70555;BME280;58104;52.744;15.242;2023-07-28T06:39:35;99520.31;;;24.12;47.86
70555;BME280;58104;52.744;15.242;2023-07-28T06:42:00;99521.91;;;24.15;47.64
70555;BME280;58104;52.744;15.242;2023-07-28T06:44:26;99526.89;;;24.21;47.48
70555;BME280;58104;52.744;15.242;2023-07-28T06:46:51;99527.86;;;24.24;47.30
70555;BME280;58104;52.744;15.242;2023-07-28T06:49:16;99527.85;;;24.34;47.20
70555;BME280;58104;52.744;15.242;2023-07-28T06:51:41;99530.16;;;24.30;47.28
70555;BME280;58104;52.744;15.242;2023-07-28T06:54:07;99527.77;;;24.41;47.19
70555;BME280;58104;52.744;15.242;2023-07-28T06:56:32;99531.41;;;24.40;47.32
70555;BME280;58104;52.744;15.242;2023-07-28T06:58:58;99533.14;;;24.40;47.16
70555;BME280;58104;52.744;15.242;2023-07-28T07:01:23;99530.11;;;24.41;47.21
70555;BME280;58104;52.744;15.242;2023-07-28T07:03:48;99532.41;;;24.35;47.15
70555;BME280;58104;52.744;15.242;2023-07-28T07:06:14;99534.56;;;24.43;47.07
70555;BME280;58104;52.744;15.242;2023-07-28T07:08:39;99531.03;;;24.38;47.17
70555;BME280;58104;52.744;15.242;2023-07-28T07:11:05;99538.00;;;24.43;47.10
70555;BME280;58104;52.744;15.242;2023-07-28T07:13:30;99541.38;;;24.48;46.98
70555;BME280;58104;52.744;15.242;2023-07-28T07:15:55;99545.39;;;24.57;46.82
70555;BME280;58104;52.744;15.242;2023-07-28T07:18:21;99546.35;;;24.56;46.91
70555;BME280;58104;52.744;15.242;2023-07-28T07:20:46;99540.89;;;24.53;46.94
70555;BME280;58104;52.744;15.242;2023-07-28T07:23:11;99537.92;;;24.49;46.98
70555;BME280;58104;52.744;15.242;2023-07-28T07:25:37;99541.53;;;24.41;47.02
70555;BME280;58104;52.744;15.242;2023-07-28T07:28:02;99541.77;;;24.44;47.10
70555;BME280;58104;52.744;15.242;2023-07-28T07:30:27;99546.56;;;24.48;47.09
70555;BME280;58104;52.744;15.242;2023-07-28T07:32:52;99547.98;;;24.48;47.11
70555;BME280;58104;52.744;15.242;2023-07-28T07:35:18;99545.13;;;24.42;47.17
70555;BME280;58104;52.744;15.242;2023-07-28T07:37:43;99539.67;;;24.47;47.24
70555;BME280;58104;52.744;15.242;2023-07-28T07:40:09;99546.76;;;24.51;47.14
70555;BME280;58104;52.744;15.242;2023-07-28T07:42:40;99543.08;;;24.50;47.18
70555;BME280;58104;52.744;15.242;2023-07-28T07:44:59;99548.32;;;24.38;47.20
70555;BME280;58104;52.744;15.242;2023-07-28T07:47:25;99545.90;;;24.41;47.30
70555;BME280;58104;52.744;15.242;2023-07-28T07:49:50;99550.69;;;24.38;47.32
70555;BME280;58104;52.744;15.242;2023-07-28T07:52:15;99550.10;;;24.48;47.26
70555;BME280;58104;52.744;15.242;2023-07-28T07:54:41;99554.01;;;24.44;47.33
70555;BME280;58104;52.744;15.242;2023-07-28T07:57:06;99555.80;;;24.45;47.32
70555;BME280;58104;52.744;15.242;2023-07-28T07:59:32;99550.50;;;24.37;47.36
70555;BME280;58104;52.744;15.242;2023-07-28T08:01:57;99557.12;;;24.38;47.63
70555;BME280;58104;52.744;15.242;2023-07-28T08:04:22;99561.07;;;24.42;47.69
70555;BME280;58104;52.744;15.242;2023-07-28T08:06:47;99561.83;;;24.36;47.66
70555;BME280;58104;52.744;15.242;2023-07-28T08:09:13;99558.04;;;24.35;47.73
70555;BME280;58104;52.744;15.242;2023-07-28T08:11:39;99555.84;;;24.38;47.58
70555;BME280;58104;52.744;15.242;2023-07-28T08:14:04;99566.03;;;24.36;47.56
70555;BME280;58104;52.744;15.242;2023-07-28T08:16:29;99565.73;;;24.54;47.27
70555;BME280;58104;52.744;15.242;2023-07-28T08:18:54;99570.91;;;24.64;47.21
70555;BME280;58104;52.744;15.242;2023-07-28T08:21:20;99571.20;;;24.58;47.09
70555;BME280;58104;52.744;15.242;2023-07-28T08:23:45;99569.91;;;24.71;46.98
70555;BME280;58104;52.744;15.242;2023-07-28T08:26:10;99568.57;;;24.66;46.93
70555;BME280;58104;52.744;15.242;2023-07-28T08:28:36;99569.25;;;24.66;46.97
70555;BME280;58104;52.744;15.242;2023-07-28T08:31:01;99577.33;;;24.51;47.23
70555;BME280;58104;52.744;15.242;2023-07-28T08:33:27;99576.23;;;24.61;47.23
70555;BME280;58104;52.744;15.242;2023-07-28T08:35:52;99564.61;;;24.64;47.19
70555;BME280;58104;52.744;15.242;2023-07-28T08:38:17;99568.00;;;24.67;47.06
70555;BME280;58104;52.744;15.242;2023-07-28T08:40:43;99571.99;;;24.72;47.12
70555;BME280;58104;52.744;15.242;2023-07-28T08:43:08;99575.47;;;24.97;46.57
70555;BME280;58104;52.744;15.242;2023-07-28T08:45:33;99578.33;;;25.03;46.26
70555;BME280;58104;52.744;15.242;2023-07-28T08:47:59;99581.16;;;25.15;46.02
70555;BME280;58104;52.744;15.242;2023-07-28T08:50:29;99587.70;;;24.36;47.91
70555;BME280;58104;52.744;15.242;2023-07-28T08:52:51;99576.49;;;23.92;49.27
70555;BME280;58104;52.744;15.242;2023-07-28T08:55:15;99572.38;;;23.67;49.71
70555;BME280;58104;52.744;15.242;2023-07-28T08:57:40;99582.10;;;23.64;49.70
70555;BME280;58104;52.744;15.242;2023-07-28T09:00:08;99583.01;;;24.23;48.14
70555;BME280;58104;52.744;15.242;2023-07-28T09:02:31;99590.96;;;24.65;47.15
70555;BME280;58104;52.744;15.242;2023-07-28T09:04:56;99581.73;;;25.00;46.35
70555;BME280;58104;52.744;15.242;2023-07-28T09:07:21;99584.48;;;25.17;45.85
70555;BME280;58104;52.744;15.242;2023-07-28T09:09:47;99585.41;;;25.32;45.59
70555;BME280;58104;52.744;15.242;2023-07-28T09:12:12;99599.13;;;25.43;45.52
70555;BME280;58104;52.744;15.242;2023-07-28T09:14:38;99600.46;;;25.38;45.56
70555;BME280;58104;52.744;15.242;2023-07-28T09:17:08;99608.67;;;25.21;46.83
70555;BME280;58104;52.744;15.242;2023-07-28T09:19:28;99614.17;;;25.28;46.71
70555;BME280;58104;52.744;15.242;2023-07-28T09:21:58;99611.62;;;25.26;47.41
70555;BME280;58104;52.744;15.242;2023-07-28T09:24:19;99609.85;;;24.57;49.60
70555;BME280;58104;52.744;15.242;2023-07-28T09:26:46;99612.79;;;24.15;51.09
70555;BME280;58104;52.744;15.242;2023-07-28T09:29:13;99621.59;;;24.07;52.27
70555;BME280;58104;52.744;15.242;2023-07-28T09:31:35;99618.60;;;23.98;52.50
70555;BME280;58104;52.744;15.242;2023-07-28T09:34:01;99623.88;;;23.64;53.59
70555;BME280;58104;52.744;15.242;2023-07-28T09:36:26;99631.15;;;23.57;54.21
70555;BME280;58104;52.744;15.242;2023-07-28T09:38:53;99627.43;;;23.54;54.08
70555;BME280;58104;52.744;15.242;2023-07-28T09:41:17;99624.99;;;23.87;52.81
70555;BME280;58104;52.744;15.242;2023-07-28T09:43:42;99627.51;;;23.98;52.40
70555;BME280;58104;52.744;15.242;2023-07-28T09:46:09;99622.40;;;23.80;52.81
70555;BME280;58104;52.744;15.242;2023-07-28T09:48:33;99620.72;;;23.91;53.94
70555;BME280;58104;52.744;15.242;2023-07-28T09:50:59;99625.80;;;23.65;53.95
70555;BME280;58104;52.744;15.242;2023-07-28T09:53:24;99628.42;;;23.48;54.71
70555;BME280;58104;52.744;15.242;2023-07-28T09:55:49;99623.50;;;23.97;52.35
70555;BME280;58104;52.744;15.242;2023-07-28T09:58:16;99621.60;;;23.70;54.65
70555;BME280;58104;52.744;15.242;2023-07-28T10:00:41;99626.15;;;23.64;54.95
70555;BME280;58104;52.744;15.242;2023-07-28T10:03:05;99637.68;;;23.67;55.58
70555;BME280;58104;52.744;15.242;2023-07-28T10:05:31;99639.76;;;23.56;55.59
70555;BME280;58104;52.744;15.242;2023-07-28T10:07:56;99633.24;;;23.81;54.76
70555;BME280;58104;52.744;15.242;2023-07-28T10:10:21;99635.61;;;23.87;54.04
70555;BME280;58104;52.744;15.242;2023-07-28T10:12:48;99635.17;;;23.81;53.78
70555;BME280;58104;52.744;15.242;2023-07-28T10:15:13;99632.08;;;23.86;54.12
70555;BME280;58104;52.744;15.242;2023-07-28T10:17:37;99638.62;;;24.30;53.43
70555;BME280;58104;52.744;15.242;2023-07-28T10:20:03;99639.41;;;24.16;54.18
70555;BME280;58104;52.744;15.242;2023-07-28T10:22:28;99635.66;;;24.10;54.46
70555;BME280;58104;52.744;15.242;2023-07-28T10:24:55;99643.06;;;24.32;52.39
70555;BME280;58104;52.744;15.242;2023-07-28T10:27:29;99646.10;;;24.48;52.62
70555;BME280;58104;52.744;15.242;2023-07-28T10:29:55;99638.18;;;24.37;52.47
70555;BME280;58104;52.744;15.242;2023-07-28T10:32:18;99637.69;;;24.52;53.55
70555;BME280;58104;52.744;15.242;2023-07-28T10:34:35;99640.88;;;24.29;54.13
70555;BME280;58104;52.744;15.242;2023-07-28T10:37:00;99644.95;;;24.22;54.55
70555;BME280;58104;52.744;15.242;2023-07-28T10:39:26;99651.45;;;24.04;54.70
70555;BME280;58104;52.744;15.242;2023-07-28T10:42:01;99653.33;;;24.00;54.68
70555;BME280;58104;52.744;15.242;2023-07-28T10:44:16;99656.49;;;24.16;55.17
70555;BME280;58104;52.744;15.242;2023-07-28T10:46:42;99662.70;;;24.33;53.88
70555;BME280;58104;52.744;15.242;2023-07-28T10:49:07;99664.30;;;24.38;53.63
70555;BME280;58104;52.744;15.242;2023-07-28T10:51:32;99663.17;;;24.45;55.35
70555;BME280;58104;52.744;15.242;2023-07-28T10:53:58;99673.61;;;24.44;55.26
70555;BME280;58104;52.744;15.242;2023-07-28T10:56:23;99669.82;;;24.31;55.44
70555;BME280;58104;52.744;15.242;2023-07-28T10:58:56;99668.57;;;24.39;54.68
70555;BME280;58104;52.744;15.242;2023-07-28T11:01:15;99666.74;;;24.41;55.04
70555;BME280;58104;52.744;15.242;2023-07-28T11:03:40;99672.18;;;24.43;54.59
70555;BME280;58104;52.744;15.242;2023-07-28T11:06:04;99680.91;;;24.16;56.23
70555;BME280;58104;52.744;15.242;2023-07-28T11:08:29;99683.85;;;23.98;55.79
70555;BME280;58104;52.744;15.242;2023-07-28T11:10:55;99682.05;;;24.10;54.78
70555;BME280;58104;52.744;15.242;2023-07-28T11:13:20;99695.17;;;23.99;56.41
70555;BME280;58104;52.744;15.242;2023-07-28T11:15:45;99686.64;;;23.82;56.72
70555;BME280;58104;52.744;15.242;2023-07-28T11:18:11;99686.29;;;23.64;56.41
70555;BME280;58104;52.744;15.242;2023-07-28T11:20:36;99688.28;;;24.04;55.38
70555;BME280;58104;52.744;15.242;2023-07-28T11:23:03;99691.53;;;23.96;56.32
70555;BME280;58104;52.744;15.242;2023-07-28T11:25:28;99694.15;;;24.20;56.07
70555;BME280;58104;52.744;15.242;2023-07-28T11:27:53;99696.83;;;24.62;54.84
70555;BME280;58104;52.744;15.242;2023-07-28T11:30:19;99693.70;;;24.61;55.16
70555;BME280;58104;52.744;15.242;2023-07-28T11:32:44;99699.95;;;24.15;55.07
70555;BME280;58104;52.744;15.242;2023-07-28T11:35:10;99704.34;;;24.11;55.75
70555;BME280;58104;52.744;15.242;2023-07-28T11:37:34;99695.78;;;24.06;56.11
70555;BME280;58104;52.744;15.242;2023-07-28T11:40:00;99701.09;;;24.11;55.78
70555;BME280;58104;52.744;15.242;2023-07-28T11:42:24;99700.05;;;24.02;56.09
70555;BME280;58104;52.744;15.242;2023-07-28T11:44:50;99696.71;;;24.42;54.89
70555;BME280;58104;52.744;15.242;2023-07-28T11:47:17;99700.42;;;24.61;54.40
70555;BME280;58104;52.744;15.242;2023-07-28T11:49:46;99703.07;;;24.79;53.21
70555;BME280;58104;52.744;15.242;2023-07-28T11:52:07;99707.24;;;24.35;56.05
70555;BME280;58104;52.744;15.242;2023-07-28T11:54:36;99718.27;;;24.28;56.58
70555;BME280;58104;52.744;15.242;2023-07-28T11:56:57;99719.96;;;24.03;56.80
70555;BME280;58104;52.744;15.242;2023-07-28T11:59:22;99707.61;;;24.33;55.37
70555;BME280;58104;52.744;15.242;2023-07-28T12:01:52;99711.14;;;24.40;55.93
70555;BME280;58104;52.744;15.242;2023-07-28T12:04:19;99711.04;;;24.86;55.51
70555;BME280;58104;52.744;15.242;2023-07-28T12:09:06;99709.06;;;24.71;55.03
70555;BME280;58104;52.744;15.242;2023-07-28T12:11:29;99712.62;;;24.96;54.67
70555;BME280;58104;52.744;15.242;2023-07-28T12:13:54;99706.23;;;25.31;53.35
70555;BME280;58104;52.744;15.242;2023-07-28T12:16:37;99707.57;;;25.66;51.88
70555;BME280;58104;52.744;15.242;2023-07-28T12:18:45;99703.74;;;25.83;51.57
70555;BME280;58104;52.744;15.242;2023-07-28T12:21:10;99702.41;;;25.82;51.52
70555;BME280;58104;52.744;15.242;2023-07-28T12:23:35;99704.24;;;25.85;51.24
70555;BME280;58104;52.744;15.242;2023-07-28T12:26:01;99703.90;;;25.77;51.29
70555;BME280;58104;52.744;15.242;2023-07-28T12:28:26;99711.00;;;25.99;50.76
70555;BME280;58104;52.744;15.242;2023-07-28T12:30:51;99714.37;;;25.87;50.81
70555;BME280;58104;52.744;15.242;2023-07-28T12:33:17;99717.16;;;25.97;49.96
70555;BME280;58104;52.744;15.242;2023-07-28T12:35:42;99722.31;;;25.96;50.14
70555;BME280;58104;52.744;15.242;2023-07-28T12:38:07;99714.14;;;26.04;50.29
70555;BME280;58104;52.744;15.242;2023-07-28T12:40:33;99729.87;;;26.12;50.17
70555;BME280;58104;52.744;15.242;2023-07-28T12:42:59;99733.20;;;25.79;50.19